createdAt,value
2022-08-12T00:00:40.576Z,9.719684
2022-08-12T00:02:03.917Z,9.719528
2022-08-12T00:02:41.811Z,9.719557
2022-08-12T00:03:40.625Z,9.719657
2022-08-12T00:04:40.556Z,9.719596
2022-08-12T00:05:57.182Z,9.719653
2022-08-12T00:06:41.570Z,9.719650
2022-08-12T00:07:40.568Z,9.719639
2022-08-12T00:08:40.649Z,9.719593
2022-08-12T00:09:40.482Z,9.719628
2022-08-12T00:10:40.477Z,9.719619
2022-08-12T00:11:40.465Z,9.719646
2022-08-12T00:12:40.770Z,9.719728
2022-08-12T00:13:40.446Z,9.719634
2022-08-12T00:14:40.432Z,9.719644
2022-08-12T00:15:40.426Z,9.719659
2022-08-12T00:16:40.431Z,9.719680
2022-08-12T00:17:40.406Z,9.719748
2022-08-12T00:18:40.401Z,9.719891
2022-08-12T00:19:40.384Z,9.719904
2022-08-12T00:20:40.377Z,9.719877
2022-08-12T00:21:40.445Z,9.719792
2022-08-12T00:22:40.537Z,9.719708
2022-08-12T00:23:40.346Z,9.719709
2022-08-12T00:24:40.396Z,9.719765
2022-08-12T00:26:18.991Z,9.719899
2022-08-12T00:26:41.358Z,9.719862
2022-08-12T00:27:43.920Z,9.719784
2022-08-12T00:28:40.298Z,9.719571
2022-08-12T00:29:41.788Z,9.719499
2022-08-12T00:30:40.281Z,9.719652
2022-08-12T00:31:40.289Z,9.719699
2022-08-12T00:32:40.275Z,9.719786
2022-08-12T00:33:52.639Z,9.719698
2022-08-12T00:34:41.264Z,9.719669
2022-08-12T00:35:40.435Z,9.719712
2022-08-12T00:36:40.223Z,9.719701
2022-08-12T00:37:40.233Z,9.719757
2022-08-12T00:38:40.199Z,9.719665
2022-08-12T00:39:40.240Z,9.719757
2022-08-12T00:40:40.182Z,9.719748
2022-08-12T00:41:40.169Z,9.719657
2022-08-12T00:42:40.492Z,9.719589
2022-08-12T00:43:40.150Z,9.719588
2022-08-12T00:44:40.150Z,9.719584
2022-08-12T00:45:40.133Z,9.719526
2022-08-12T00:46:40.136Z,9.719511
2022-08-12T00:47:40.126Z,9.719408
2022-08-12T00:48:40.107Z,9.719417
2022-08-12T00:49:40.092Z,9.719475
2022-08-12T00:50:40.092Z,9.719442
2022-08-12T00:51:40.073Z,9.719443
2022-08-12T00:52:40.241Z,9.719505
2022-08-12T00:53:40.053Z,9.719477
2022-08-12T00:54:40.047Z,9.719524
2022-08-12T00:55:40.035Z,9.719658
2022-08-12T00:56:40.031Z,9.719730
2022-08-12T00:57:40.030Z,9.719641
2022-08-12T00:58:40.013Z,9.719641
2022-08-12T00:59:39.997Z,9.719645
2022-08-12T01:00:39.994Z,9.719618
2022-08-12T01:02:10.418Z,9.719629
2022-08-12T01:02:41.226Z,9.719635
2022-08-12T01:03:39.954Z,9.719629
2022-08-12T01:04:39.948Z,9.719666
2022-08-12T01:05:39.930Z,9.719660
2022-08-12T01:06:39.925Z,9.719696
2022-08-12T01:07:39.930Z,9.719671
2022-08-12T01:08:39.911Z,9.719641
2022-08-12T01:09:39.924Z,9.719629
2022-08-12T01:10:39.890Z,9.719639
2022-08-12T01:11:39.879Z,9.719684
2022-08-12T01:12:40.041Z,9.719705
2022-08-12T01:13:39.854Z,9.719647
2022-08-12T01:14:39.849Z,9.719663
2022-08-12T01:15:39.892Z,9.719643
2022-08-12T01:16:39.828Z,9.719644
2022-08-12T01:17:39.824Z,9.719722
2022-08-12T01:18:39.826Z,9.719699
2022-08-12T01:19:39.866Z,9.719646
2022-08-12T01:20:39.790Z,9.719608
2022-08-12T01:21:39.781Z,9.719617
2022-08-12T01:22:39.908Z,9.719618
2022-08-12T01:23:39.777Z,9.719626
2022-08-12T01:24:39.759Z,9.719651
2022-08-12T01:25:55.593Z,9.719641
2022-08-12T01:26:40.737Z,9.719618
2022-08-12T01:27:39.724Z,9.719658
2022-08-12T01:28:39.731Z,9.719624
2022-08-12T01:29:39.706Z,9.719604
2022-08-12T01:30:39.696Z,9.719603
2022-08-12T01:31:39.690Z,9.719637
2022-08-12T01:32:39.867Z,9.719678
2022-08-12T01:33:39.677Z,9.719674
2022-08-12T01:34:39.767Z,9.719632
2022-08-12T01:35:39.649Z,9.719599
2022-08-12T01:36:39.638Z,9.719581
2022-08-12T01:37:39.624Z,9.719667
2022-08-12T01:38:39.636Z,9.719729
2022-08-12T01:40:35.492Z,9.719657
2022-08-12T01:40:44.956Z,9.719658
2022-08-12T01:41:40.590Z,9.719625
2022-08-12T01:42:39.819Z,9.719621
2022-08-12T01:43:39.578Z,9.719574
2022-08-12T01:44:39.591Z,9.719569
2022-08-12T01:45:42.887Z,9.719606
2022-08-12T01:46:39.544Z,9.719649
2022-08-12T01:47:39.526Z,9.719626
2022-08-12T01:48:39.535Z,9.719674
2022-08-12T01:49:39.501Z,9.719642
2022-08-12T01:50:39.509Z,9.719616
2022-08-12T01:52:21.870Z,9.719640
2022-08-12T01:52:40.760Z,9.719665
2022-08-12T01:53:48.565Z,9.719648
2022-08-12T01:54:40.462Z,9.719648
2022-08-12T01:55:39.450Z,9.719613
2022-08-12T01:56:39.446Z,9.719624
2022-08-12T01:57:59.575Z,9.719629
2022-08-12T01:58:40.489Z,9.719578
2022-08-12T01:59:39.413Z,9.719619
2022-08-12T02:00:43.305Z,9.719604
2022-08-12T02:01:40.465Z,9.719600
2022-08-12T02:02:39.530Z,9.719610
2022-08-12T02:03:39.397Z,9.719624
2022-08-12T02:04:39.367Z,9.719620
2022-08-12T02:05:39.352Z,9.719636
2022-08-12T02:06:39.345Z,9.719662
2022-08-12T02:07:39.330Z,9.719639
2022-08-12T02:08:39.336Z,9.719623
2022-08-12T02:09:39.307Z,9.719584
2022-08-12T02:10:50.133Z,9.719601
2022-08-12T02:11:40.292Z,9.719626
2022-08-12T02:12:39.286Z,9.719613
2022-08-12T02:13:48.717Z,9.719612
2022-08-12T02:14:40.263Z,9.719635
2022-08-12T02:15:39.252Z,9.719596
2022-08-12T02:16:39.252Z,9.719611
2022-08-12T02:17:54.716Z,9.719600
2022-08-12T02:18:40.241Z,9.719565
2022-08-12T02:19:39.210Z,9.719547
2022-08-12T02:20:51.928Z,9.719509
2022-08-12T02:21:40.281Z,9.719503
2022-08-12T02:22:39.468Z,9.719596
2022-08-12T02:23:39.229Z,9.719661
2022-08-12T02:24:39.163Z,9.719621
2022-08-12T02:25:39.149Z,9.719692
2022-08-12T02:26:39.147Z,9.719748
2022-08-12T02:27:39.137Z,9.719718
2022-08-12T02:28:39.147Z,9.719792
2022-08-12T02:29:39.117Z,9.719726
2022-08-12T02:30:41.989Z,9.719665
2022-08-12T02:31:39.091Z,9.719662
2022-08-12T02:32:39.289Z,9.719641
2022-08-12T02:33:39.075Z,9.719653
2022-08-12T02:34:39.080Z,9.719624
2022-08-12T02:35:39.055Z,9.719607
2022-08-12T02:36:39.047Z,9.719646
2022-08-12T02:37:39.036Z,9.719627
2022-08-12T02:38:39.044Z,9.719597
2022-08-12T02:39:39.041Z,9.719592
2022-08-12T02:40:39.016Z,9.719505
2022-08-12T02:41:39.001Z,9.719539
2022-08-12T02:42:39.184Z,9.719581
2022-08-12T02:43:38.994Z,9.719540
2022-08-12T02:44:38.974Z,9.719573
2022-08-12T02:45:38.959Z,9.719599
2022-08-12T02:46:38.947Z,9.719597
2022-08-12T02:47:59.130Z,9.719612
2022-08-12T02:48:39.947Z,9.719625
2022-08-12T02:49:38.920Z,9.719609
2022-08-12T02:50:38.914Z,9.719618
2022-08-12T02:51:38.905Z,9.719619
2022-08-12T02:52:39.020Z,9.719665
2022-08-12T02:53:38.897Z,9.719630
2022-08-12T02:54:38.964Z,9.719541
2022-08-12T02:55:38.867Z,9.719627
2022-08-12T02:56:38.859Z,9.719649
2022-08-12T02:57:38.848Z,9.719790
2022-08-12T02:58:41.347Z,9.719935
2022-08-12T02:59:39.831Z,9.719868
2022-08-12T03:00:38.842Z,9.719662
2022-08-12T03:01:47.905Z,9.719716
2022-08-12T03:02:39.917Z,9.719576
2022-08-12T03:03:38.803Z,9.719561
2022-08-12T03:04:43.474Z,9.719624
2022-08-12T03:05:44.540Z,9.719644
2022-08-12T03:06:38.758Z,9.719624
2022-08-12T03:07:59.650Z,9.719663
2022-08-12T03:08:39.752Z,9.719636
2022-08-12T03:10:03.854Z,9.719452
2022-08-12T03:10:39.717Z,9.719302
2022-08-12T03:11:42.137Z,9.719264
2022-08-12T03:12:48.895Z,9.719354
2022-08-12T03:13:39.710Z,9.719484
2022-08-12T03:14:38.773Z,9.719667
2022-08-12T03:15:38.672Z,9.719546
2022-08-12T03:16:38.661Z,9.719450
2022-08-12T03:17:38.653Z,9.719529
2022-08-12T03:18:38.652Z,9.719521
2022-08-12T03:19:38.657Z,9.719422
2022-08-12T03:20:39.640Z,9.719510
2022-08-12T03:21:54.641Z,9.719527
2022-08-12T03:22:39.735Z,9.719617
2022-08-12T03:23:38.591Z,9.719748
2022-08-12T03:24:38.599Z,9.719630
2022-08-12T03:25:38.625Z,9.719661
2022-08-12T03:26:38.563Z,9.719525
2022-08-12T03:27:38.554Z,9.719836
2022-08-12T03:28:38.546Z,9.719674
2022-08-12T03:29:43.312Z,9.719470
2022-08-12T03:30:39.526Z,9.719721
2022-08-12T03:31:38.515Z,9.719731
2022-08-12T03:32:38.507Z,9.719664
2022-08-12T03:33:38.501Z,9.719581
2022-08-12T03:34:38.499Z,9.719610
2022-08-12T03:35:41.455Z,9.719538
2022-08-12T03:36:38.571Z,9.719674
2022-08-12T03:37:38.461Z,9.719658
2022-08-12T03:38:38.450Z,9.719637
2022-08-12T03:39:38.502Z,9.719660
2022-08-12T03:40:38.422Z,9.719716
2022-08-12T03:41:38.421Z,9.719620
2022-08-12T03:42:38.442Z,9.719563
2022-08-12T03:43:38.426Z,9.719570
2022-08-12T03:44:38.391Z,9.719522
2022-08-12T03:45:52.321Z,9.719530
2022-08-12T03:46:39.364Z,9.719527
2022-08-12T03:47:38.364Z,9.719490
2022-08-12T03:48:38.369Z,9.719562
2022-08-12T03:49:38.362Z,9.719777
2022-08-12T03:50:38.336Z,9.719769
2022-08-12T03:51:38.325Z,9.719845
2022-08-12T03:52:38.335Z,9.719776
2022-08-12T03:53:38.300Z,9.719987
2022-08-12T03:54:42.430Z,9.719765
2022-08-12T03:55:38.285Z,9.719596
2022-08-12T03:56:38.274Z,9.719633
2022-08-12T03:57:38.265Z,9.719717
2022-08-12T03:58:38.253Z,9.719848
2022-08-12T03:59:38.258Z,9.719795
2022-08-12T04:00:38.280Z,9.719554
2022-08-12T04:01:40.796Z,9.719340
2022-08-12T04:02:38.285Z,9.720160
2022-08-12T04:03:38.222Z,9.720435
2022-08-12T04:04:38.197Z,9.720511
2022-08-12T04:05:55.829Z,9.720119
2022-08-12T04:06:39.211Z,9.719791
2022-08-12T04:07:38.170Z,9.719700
2022-08-12T04:08:39.170Z,9.719669
2022-08-12T04:09:38.153Z,9.719639
2022-08-12T04:10:38.138Z,9.719836
2022-08-12T04:11:46.960Z,9.719932
2022-08-12T04:12:39.117Z,9.719861
2022-08-12T04:13:38.132Z,9.719923
2022-08-12T04:14:38.100Z,9.720011
2022-08-12T04:15:38.115Z,9.719969
2022-08-12T04:16:38.084Z,9.719983
2022-08-12T04:17:38.066Z,9.720007
2022-08-12T04:18:39.075Z,9.719990
2022-08-12T04:19:38.185Z,9.719993
2022-08-12T04:20:38.043Z,9.719963
2022-08-12T04:21:38.037Z,9.719880
2022-08-12T04:22:39.206Z,9.719915
2022-08-12T04:23:38.026Z,9.720182
2022-08-12T04:24:40.781Z,9.720167
2022-08-12T04:25:37.994Z,9.720307
2022-08-12T04:26:37.980Z,9.720398
2022-08-12T04:27:37.972Z,9.720485
2022-08-12T04:28:37.976Z,9.720469
2022-08-12T04:30:29.243Z,9.720535
2022-08-12T04:30:38.942Z,9.719782
2022-08-12T04:31:37.929Z,9.719711
2022-08-12T04:32:43.752Z,9.719648
2022-08-12T04:33:38.950Z,9.719625
2022-08-12T04:34:37.924Z,9.719634
2022-08-12T04:35:37.897Z,9.719631
2022-08-12T04:36:37.885Z,9.719648
2022-08-12T04:37:58.271Z,9.719700
2022-08-12T04:38:38.882Z,9.719675
2022-08-12T04:39:37.897Z,9.719669
2022-08-12T04:40:37.854Z,9.719645
2022-08-12T04:41:37.839Z,9.719600
2022-08-12T04:42:38.884Z,9.719621
2022-08-12T04:44:00.129Z,9.719547
2022-08-12T04:44:38.820Z,9.719626
2022-08-12T04:45:37.807Z,9.719610
2022-08-12T04:46:37.793Z,9.719666
2022-08-12T04:47:37.782Z,9.719634
2022-08-12T04:48:37.769Z,9.719622
2022-08-12T04:49:37.780Z,9.719607
2022-08-12T04:50:37.751Z,9.719530
2022-08-12T04:51:37.749Z,9.719541
2022-08-12T04:52:37.868Z,9.719534
2022-08-12T04:53:37.726Z,9.719600
2022-08-12T04:54:37.737Z,9.719610
2022-08-12T04:55:37.720Z,9.719584
2022-08-12T04:56:37.702Z,9.719663
2022-08-12T04:57:37.688Z,9.719665
2022-08-12T04:58:37.691Z,9.719734
2022-08-12T04:59:47.141Z,9.719672
2022-08-12T05:00:38.662Z,9.719610
2022-08-12T05:01:37.651Z,9.719677
2022-08-12T05:02:37.666Z,9.719668
2022-08-12T05:03:46.712Z,9.719589
2022-08-12T05:04:38.778Z,9.719571
2022-08-12T05:05:37.611Z,9.719585
2022-08-12T05:06:37.596Z,9.719604
2022-08-12T05:07:46.577Z,9.719589
2022-08-12T05:08:38.585Z,9.719586
2022-08-12T05:10:00.884Z,9.719623
2022-08-12T05:10:38.558Z,9.719641
2022-08-12T05:11:37.550Z,9.719633
2022-08-12T05:12:38.601Z,9.719614
2022-08-12T05:13:37.537Z,9.719625
2022-08-12T05:14:37.861Z,9.719703
2022-08-12T05:15:37.513Z,9.719720
2022-08-12T05:16:38.501Z,9.719754
2022-08-12T05:17:37.496Z,9.719650
2022-08-12T05:18:39.076Z,9.719596
2022-08-12T05:19:37.493Z,9.719622
2022-08-12T05:20:37.464Z,9.719583
2022-08-12T05:21:37.459Z,9.719595
2022-08-12T05:22:37.447Z,9.719598
2022-08-12T05:23:37.434Z,9.719625
2022-08-12T05:24:37.452Z,9.719527
2022-08-12T05:25:37.421Z,9.719514
2022-08-12T05:26:37.404Z,9.719506
2022-08-12T05:27:37.400Z,9.719611
2022-08-12T05:28:37.384Z,9.719518
2022-08-12T05:30:08.051Z,9.719442
2022-08-12T05:30:38.360Z,9.719659
2022-08-12T05:31:40.442Z,9.719608
2022-08-12T05:32:38.369Z,9.719553
2022-08-12T05:33:37.350Z,9.719660
2022-08-12T05:34:37.344Z,9.719679
2022-08-12T05:35:37.320Z,9.719615
2022-08-12T05:36:37.372Z,9.719643
2022-08-12T05:37:37.307Z,9.719624
2022-08-12T05:38:37.290Z,9.719656
2022-08-12T05:39:37.328Z,9.719728
2022-08-12T05:40:37.271Z,9.719649
2022-08-12T05:41:37.263Z,9.719618
2022-08-12T05:42:37.262Z,9.719483
2022-08-12T05:43:37.282Z,9.719419
2022-08-12T05:44:37.243Z,9.719439
2022-08-12T05:45:40.482Z,9.719503
2022-08-12T05:46:37.222Z,9.719501
2022-08-12T05:47:53.409Z,9.719598
2022-08-12T05:48:38.189Z,9.719544
2022-08-12T05:49:37.209Z,9.719587
2022-08-12T05:50:37.175Z,9.719648
2022-08-12T05:51:40.178Z,9.719739
2022-08-12T05:52:37.154Z,9.719657
2022-08-12T05:53:37.145Z,9.719666
2022-08-12T05:54:56.689Z,9.719757
2022-08-12T05:55:38.130Z,9.719670
2022-08-12T05:56:37.169Z,9.719567
2022-08-12T05:57:37.114Z,9.719538
2022-08-12T05:58:37.096Z,9.719621
2022-08-12T05:59:37.115Z,9.719643
2022-08-12T06:00:37.144Z,9.719604
2022-08-12T06:02:08.819Z,9.719637
2022-08-12T06:02:38.065Z,9.719639
2022-08-12T06:03:37.083Z,9.719600
2022-08-12T06:04:37.041Z,9.719623
2022-08-12T06:05:54.384Z,9.719616
2022-08-12T06:06:39.719Z,9.719616
2022-08-12T06:07:37.675Z,9.719609
2022-08-12T06:08:38.000Z,9.719597
2022-08-12T06:09:37.005Z,9.719559
2022-08-12T06:10:36.982Z,9.719592
2022-08-12T06:11:36.973Z,9.719617
2022-08-12T06:12:36.962Z,9.719601
2022-08-12T06:13:53.965Z,9.719588
2022-08-12T06:14:38.035Z,9.719607
2022-08-12T06:15:36.928Z,9.719581
2022-08-12T06:16:36.921Z,9.719596
2022-08-12T06:17:36.910Z,9.719586
2022-08-12T06:18:36.898Z,9.719564
2022-08-12T06:20:27.001Z,9.719561
2022-08-12T06:20:37.882Z,9.719571
2022-08-12T06:21:36.874Z,9.719579
2022-08-12T06:22:36.868Z,9.719582
2022-08-12T06:23:40.549Z,9.719594
2022-08-12T06:24:36.856Z,9.719600
2022-08-12T06:25:36.832Z,9.719605
2022-08-12T06:26:36.826Z,9.719617
2022-08-12T06:27:36.812Z,9.719611
2022-08-12T06:28:37.802Z,9.719628
2022-08-12T06:30:08.177Z,9.719613
2022-08-12T06:30:39.450Z,9.719577
2022-08-12T06:31:36.776Z,9.719631
2022-08-12T06:32:42.902Z,9.719621
2022-08-12T06:33:55.038Z,9.719611
2022-08-12T06:35:26.610Z,9.719575
2022-08-12T06:35:47.685Z,9.719586
2022-08-12T06:36:37.721Z,9.719595
2022-08-12T06:37:36.712Z,9.719617
2022-08-12T06:38:36.705Z,9.719600
2022-08-12T06:39:36.726Z,9.719611
2022-08-12T06:40:36.677Z,9.719660
2022-08-12T06:41:36.675Z,9.719618
2022-08-12T06:42:36.662Z,9.719625
2022-08-12T06:44:05.613Z,9.719666
2022-08-12T06:44:37.657Z,9.719643
2022-08-12T06:45:46.037Z,9.719646
2022-08-12T06:46:37.624Z,9.719587
2022-08-12T06:47:36.611Z,9.719665
2022-08-12T06:48:36.595Z,9.719653
2022-08-12T06:49:36.588Z,9.719634
2022-08-12T06:50:39.897Z,9.719630
2022-08-12T06:51:36.586Z,9.719654
2022-08-12T06:52:36.560Z,9.719624
2022-08-12T06:53:36.551Z,9.719623
2022-08-12T06:54:36.542Z,9.719655
2022-08-12T06:55:36.556Z,9.719634
2022-08-12T06:58:05.548Z,9.719612
2022-08-12T06:58:06.099Z,9.719636
2022-08-12T06:58:37.517Z,9.719472
2022-08-12T06:59:36.490Z,9.719499
2022-08-12T07:00:36.538Z,9.719544
2022-08-12T07:01:36.474Z,9.719583
2022-08-12T07:02:37.272Z,9.719590
2022-08-12T07:03:36.456Z,9.719592
2022-08-12T07:04:37.775Z,9.719633
2022-08-12T07:05:36.451Z,9.719598
2022-08-12T07:06:36.442Z,9.719563
2022-08-12T07:07:36.424Z,9.719544
2022-08-12T07:08:36.414Z,9.719530
2022-08-12T07:10:05.198Z,9.719530
2022-08-12T07:10:37.406Z,9.719548
2022-08-12T07:11:36.418Z,9.719561
2022-08-12T07:12:36.376Z,9.719552
2022-08-12T07:13:36.362Z,9.719572
2022-08-12T07:14:40.658Z,9.719552
2022-08-12T07:15:36.362Z,9.719567
2022-08-12T07:16:36.339Z,9.719565
2022-08-12T07:17:36.916Z,9.719556
2022-08-12T07:18:36.319Z,9.719546
2022-08-12T07:19:45.029Z,9.719562
2022-08-12T07:20:52.170Z,9.719563
2022-08-12T07:22:00.155Z,9.719550
2022-08-12T07:22:37.282Z,9.719580
2022-08-12T07:23:36.265Z,9.719536
2022-08-12T07:24:36.256Z,9.719550
2022-08-12T07:25:37.513Z,9.719539
2022-08-12T07:26:37.263Z,9.719599
2022-08-12T07:27:36.268Z,9.719654
2022-08-12T07:28:36.260Z,9.719599
2022-08-12T07:29:57.939Z,9.719619
2022-08-12T07:30:37.211Z,9.719558
2022-08-12T07:31:36.210Z,9.719533
2022-08-12T07:32:36.199Z,9.719513
2022-08-12T07:33:36.175Z,9.719505
2022-08-12T07:34:36.164Z,9.719534
2022-08-12T07:35:36.217Z,9.719525
2022-08-12T07:36:36.142Z,9.719516
2022-08-12T07:37:36.153Z,9.719529
2022-08-12T07:38:36.135Z,9.719524
2022-08-12T07:39:36.155Z,9.719512
2022-08-12T07:40:36.126Z,9.719508
2022-08-12T07:41:36.092Z,9.719498
2022-08-12T07:42:36.079Z,9.719523
2022-08-12T07:43:36.125Z,9.719559
2022-08-12T07:44:36.066Z,9.719539
2022-08-12T07:45:36.066Z,9.719529
2022-08-12T07:46:36.085Z,9.719544
2022-08-12T07:47:36.034Z,9.719583
2022-08-12T07:48:36.028Z,9.719560
2022-08-12T07:49:36.016Z,9.719604
2022-08-12T07:50:37.029Z,9.719568
2022-08-12T07:51:35.993Z,9.719543
2022-08-12T07:52:36.024Z,9.719472
2022-08-12T07:53:47.723Z,9.719477
2022-08-12T07:54:36.964Z,9.719501
2022-08-12T07:55:35.968Z,9.719512
2022-08-12T07:56:35.948Z,9.719539
2022-08-12T07:57:35.935Z,9.719518
2022-08-12T07:58:35.941Z,9.719516
2022-08-12T07:59:35.923Z,9.719518
2022-08-12T08:00:35.919Z,9.719530
2022-08-12T08:01:35.955Z,9.719550
2022-08-12T08:02:35.894Z,9.719543
2022-08-12T08:03:35.871Z,9.719555
2022-08-12T08:04:36.868Z,9.719509
2022-08-12T08:05:35.856Z,9.719470
2022-08-12T08:06:36.358Z,9.719512
2022-08-12T08:07:35.838Z,9.719558
2022-08-12T08:08:35.826Z,9.719478
2022-08-12T08:09:35.814Z,9.719465
2022-08-12T08:10:35.842Z,9.719501
2022-08-12T08:11:35.810Z,9.719461
2022-08-12T08:12:35.853Z,9.719548
2022-08-12T08:13:35.774Z,9.719487
2022-08-12T08:14:35.782Z,9.719444
2022-08-12T08:16:36.767Z,9.719636
2022-08-12T08:17:35.743Z,9.719686
2022-08-12T08:18:35.731Z,9.719624
2022-08-12T08:20:01.992Z,9.719574
2022-08-12T08:20:36.748Z,9.719606
2022-08-12T08:21:35.723Z,9.719626
2022-08-12T08:22:41.984Z,9.719589
2022-08-12T08:23:37.202Z,9.719573
2022-08-12T08:24:35.677Z,9.719605
2022-08-12T08:25:37.629Z,9.719540
2022-08-12T08:26:35.675Z,9.719592
2022-08-12T08:27:35.650Z,9.719558
2022-08-12T08:28:35.643Z,9.719535
2022-08-12T08:29:35.638Z,9.719557
2022-08-12T08:30:35.622Z,9.719584
2022-08-12T08:31:35.625Z,9.719608
2022-08-12T08:32:35.667Z,9.719696
2022-08-12T08:34:05.181Z,9.719610
2022-08-12T08:34:53.071Z,9.719552
2022-08-12T08:35:47.650Z,9.719560
2022-08-12T08:36:36.585Z,9.719585
2022-08-12T08:37:37.063Z,9.719585
2022-08-12T08:38:35.611Z,9.719631
2022-08-12T08:39:35.601Z,9.719700
2022-08-12T08:40:35.564Z,9.719649
2022-08-12T08:42:15.456Z,9.719604
2022-08-12T08:42:36.519Z,9.719622
2022-08-12T08:43:44.377Z,9.719601
2022-08-12T08:44:36.500Z,9.719562
2022-08-12T08:45:35.491Z,9.719566
2022-08-12T08:46:35.494Z,9.719574
2022-08-12T08:47:35.465Z,9.719589
2022-08-12T08:48:35.460Z,9.719608
2022-08-12T08:49:35.452Z,9.719611
2022-08-12T08:50:35.440Z,9.719605
2022-08-12T08:51:35.443Z,9.719613
2022-08-12T08:52:39.442Z,9.719620
2022-08-12T08:53:36.416Z,9.719591
2022-08-12T08:54:35.408Z,9.719555
2022-08-12T08:56:03.322Z,9.719528
2022-08-12T08:56:36.404Z,9.719534
2022-08-12T08:57:43.130Z,9.719580
2022-08-12T08:58:36.374Z,9.719587
2022-08-12T08:59:35.366Z,9.719563
2022-08-12T09:00:35.360Z,9.719541
2022-08-12T09:01:37.517Z,9.719555
2022-08-12T09:02:35.367Z,9.719603
2022-08-12T09:05:08.572Z,9.719642
2022-08-12T09:05:13.457Z,9.719648
2022-08-12T09:06:01.563Z,9.719582
2022-08-12T09:06:37.364Z,9.719564
2022-08-12T09:07:43.895Z,9.719620
2022-08-12T09:08:36.291Z,9.719596
2022-08-12T09:10:02.945Z,9.719643
2022-08-12T09:10:36.278Z,9.719594
2022-08-12T09:12:06.904Z,9.719593
2022-08-12T09:12:36.283Z,9.719559
2022-08-12T09:14:10.927Z,9.719585
2022-08-12T09:14:36.242Z,9.719569
2022-08-12T09:15:36.248Z,9.719552
2022-08-12T09:16:40.902Z,9.719508
2022-08-12T09:18:36.211Z,9.719531
2022-08-12T09:19:35.203Z,9.719567
2022-08-12T09:20:35.196Z,9.719530
2022-08-12T09:21:54.744Z,9.719541
2022-08-12T09:22:36.196Z,9.719511
2022-08-12T09:23:59.322Z,9.719543
2022-08-12T09:24:36.215Z,9.719521
2022-08-12T09:25:35.152Z,9.719603
2022-08-12T09:26:38.152Z,9.719586
2022-08-12T09:28:04.316Z,9.719590
2022-08-12T09:28:36.897Z,9.719556
2022-08-12T09:30:11.668Z,9.719633
2022-08-12T09:30:41.085Z,9.719551
2022-08-12T09:32:03.132Z,9.719631
2022-08-12T09:33:05.200Z,9.719659
2022-08-12T09:34:26.120Z,9.719646
2022-08-12T09:34:42.036Z,9.719664
2022-08-12T09:35:43.186Z,9.719645
2022-08-12T09:36:58.353Z,9.719638
2022-08-12T09:37:58.513Z,9.719640
2022-08-12T09:38:36.959Z,9.719617
2022-08-12T09:40:02.081Z,9.719658
2022-08-12T09:41:01.408Z,9.719644
2022-08-12T09:42:33.658Z,9.719698
2022-08-12T09:42:44.047Z,9.719728
2022-08-12T09:43:36.048Z,9.719670
2022-08-12T09:44:39.026Z,9.719623
2022-08-12T09:46:06.402Z,9.719614
2022-08-12T09:46:36.046Z,9.719623
2022-08-12T09:47:34.991Z,9.719641
2022-08-12T09:48:36.070Z,9.719667
2022-08-12T09:49:38.538Z,9.719600
2022-08-12T09:50:34.947Z,9.719612
2022-08-12T09:51:37.308Z,9.719620
2022-08-12T09:52:34.990Z,9.719630
2022-08-12T09:53:38.587Z,9.719634
2022-08-12T09:54:36.209Z,9.719588
2022-08-12T09:56:06.990Z,9.719635
2022-08-12T09:57:02.861Z,9.719612
2022-08-12T09:58:44.902Z,9.719604
2022-08-12T09:58:57.242Z,9.719585
2022-08-12T10:00:12.618Z,9.719589
2022-08-12T10:00:51.693Z,9.719597
2022-08-12T10:02:52.606Z,9.719604
2022-08-12T10:02:53.070Z,9.719600
2022-08-12T10:03:35.941Z,9.719596
2022-08-12T10:04:35.966Z,9.719600
2022-08-12T10:06:19.665Z,9.719620
2022-08-12T10:06:36.897Z,9.719583
2022-08-12T10:07:39.431Z,9.719625
2022-08-12T10:08:34.830Z,9.719599
2022-08-12T10:09:57.339Z,9.719638
2022-08-12T10:10:40.397Z,9.719628
2022-08-12T10:12:10.616Z,9.719639
2022-08-12T10:12:35.786Z,9.719632
2022-08-12T10:13:40.194Z,9.719629
2022-08-12T10:14:36.750Z,9.719623
2022-08-12T10:16:02.844Z,9.719614
2022-08-12T10:16:39.464Z,9.719631
2022-08-12T10:17:34.760Z,9.719650
2022-08-12T10:18:36.093Z,9.719634
2022-08-12T10:19:36.847Z,9.719628
2022-08-12T10:20:34.731Z,9.719618
2022-08-12T10:21:36.468Z,9.719642
2022-08-12T10:22:39.327Z,9.719619
2022-08-12T10:23:40.156Z,9.719614
2022-08-12T10:24:35.704Z,9.719631
2022-08-12T10:26:34.269Z,9.719640
2022-08-12T10:26:38.974Z,9.719630
2022-08-12T10:27:39.477Z,9.719634
2022-08-12T10:28:35.693Z,9.719652
2022-08-12T10:30:02.784Z,9.719637
2022-08-12T10:30:40.011Z,9.719645
2022-08-12T10:31:47.423Z,9.719653
2022-08-12T10:32:45.205Z,9.719682
2022-08-12T10:33:54.798Z,9.719641
2022-08-12T10:34:35.636Z,9.719646
2022-08-12T10:35:38.249Z,9.719639
2022-08-12T10:36:39.849Z,9.719671
2022-08-12T10:38:36.643Z,9.719591
2022-08-12T10:38:41.568Z,9.719619
2022-08-12T10:40:01.781Z,9.719718
2022-08-12T10:40:37.903Z,9.719633
2022-08-12T10:41:57.876Z,9.719659
2022-08-12T10:42:35.577Z,9.719611
2022-08-12T10:43:54.024Z,9.719699
2022-08-12T10:44:35.568Z,9.719626
2022-08-12T10:45:38.142Z,9.719646
2022-08-12T10:46:34.552Z,9.719650
2022-08-12T10:48:19.638Z,9.719632
2022-08-12T10:48:35.548Z,9.719587
2022-08-12T10:50:02.982Z,9.719664
2022-08-12T10:50:56.710Z,9.719563
2022-08-12T10:52:04.611Z,9.719667
2022-08-12T10:52:47.166Z,9.719665
2022-08-12T10:53:45.475Z,9.719651
2022-08-12T10:54:36.261Z,9.719660
2022-08-12T10:55:35.502Z,9.719645
2022-08-12T10:56:35.421Z,9.719648
2022-08-12T10:58:13.728Z,9.719643
2022-08-12T10:58:35.480Z,9.719636
2022-08-12T11:00:01.327Z,9.719616
2022-08-12T11:00:55.358Z,9.719614
2022-08-12T11:04:19.351Z,9.719641
2022-08-12T11:04:24.245Z,9.719644
2022-08-12T11:04:26.120Z,9.719674
2022-08-12T11:04:43.747Z,9.719642
2022-08-12T11:07:03.708Z,9.719664
2022-08-12T11:07:05.076Z,9.719637
2022-08-12T11:08:37.766Z,9.719642
2022-08-12T11:08:42.414Z,9.719654
2022-08-12T11:09:54.232Z,9.719648
2022-08-12T11:10:35.465Z,9.719650
2022-08-12T11:12:37.053Z,9.719660
2022-08-12T11:12:59.307Z,9.719660
2022-08-12T11:13:45.827Z,9.719667
2022-08-12T11:14:49.591Z,9.719681
2022-08-12T11:16:19.884Z,9.719684
2022-08-12T11:16:35.495Z,9.719733
2022-08-12T11:17:43.827Z,9.719681
2022-08-12T11:18:35.340Z,9.719680
2022-08-12T11:19:34.443Z,9.719671
2022-08-12T11:20:34.327Z,9.719640
2022-08-12T11:21:57.130Z,9.719655
2022-08-12T11:22:35.486Z,9.719653
2022-08-12T11:23:36.928Z,9.719658
2022-08-12T11:24:34.344Z,9.719664
2022-08-12T11:25:53.715Z,9.719679
2022-08-12T11:26:35.293Z,9.719689
2022-08-12T11:27:34.288Z,9.719699
2022-08-12T11:28:37.653Z,9.719685
2022-08-12T11:30:02.213Z,9.719695
2022-08-12T11:30:35.292Z,9.719689
2022-08-12T11:31:52.661Z,9.719666
2022-08-12T11:32:38.832Z,9.719716
2022-08-12T11:34:06.822Z,9.719692
2022-08-12T11:34:53.266Z,9.719690
2022-08-12T11:35:35.241Z,9.719667
2022-08-12T11:36:36.277Z,9.719650
2022-08-12T11:37:57.717Z,9.719712
2022-08-12T11:38:35.193Z,9.719669
2022-08-12T11:40:03.581Z,9.719650
2022-08-12T11:40:35.174Z,9.719684
2022-08-12T11:41:34.166Z,9.719701
2022-08-12T11:42:34.165Z,9.719680
2022-08-12T11:43:50.748Z,9.719646
2022-08-12T11:44:42.878Z,9.719657
2022-08-12T11:45:38.943Z,9.719646
2022-08-12T11:46:34.136Z,9.719642